Time;durP1;ratioP1;P1;durP2;ratioP2;P2;SDS_P1;SDS_P2;PMS_P1;PMS_P2;Temp;Humidity;BMP_temperature;BMP_pressure;BME280_temperature;BME280_humidity;BME280_pressure;Samples;Min_cycle;Max_cycle;Signal;HPM_P1;HPM_P2
2022/01/28 00:02:12;;;;;;;17.88;3.80;;;4.00;99.90;;;;;;5080912;28;20502;-49
2022/01/28 00:04:37;;;;;;;21.30;2.97;;;4.00;99.90;;;;;;5084381;28;20044;-51
2022/01/28 00:07:03;;;;;;;16.40;2.90;;;4.10;99.90;;;;;;5079700;28;20045;-49
2022/01/28 00:09:29;;;;;;;16.50;2.65;;;4.20;99.90;;;;;;5072742;28;20063;-51
2022/01/28 00:11:54;;;;;;;19.45;3.00;;;4.20;99.90;;;;;;5073510;28;20044;-53
2022/01/28 00:14:30;;;;;;;15.50;3.03;;;4.10;99.90;;;;;;5098803;22;20023;-86
2022/01/28 00:38:52;;;;;;;16.13;2.60;;;4.10;99.90;;;;;;5022740;28;20124;-88
2022/01/28 00:41:17;;;;;;;12.20;2.65;;;4.00;99.90;;;;;;5041225;28;20120;-88
2022/01/28 00:43:43;;;;;;;16.77;2.60;;;4.00;99.90;;;;;;5006106;28;20186;-88
2022/01/28 00:46:09;;;;;;;12.38;2.28;;;4.00;99.90;;;;;;5028282;28;20041;-88
2022/01/28 00:48:34;;;;;;;9.18;2.00;;;4.00;99.90;;;;;;5009445;28;20029;-88
2022/01/28 00:51:00;;;;;;;13.73;2.65;;;4.00;99.90;;;;;;5006694;28;20429;-90
2022/01/28 00:53:26;;;;;;;20.38;3.53;;;4.00;99.90;;;;;;5026497;28;20036;-90
2022/01/28 00:55:54;;;;;;;13.38;1.90;;;4.00;99.90;;;;;;5019842;28;20041;-90
2022/01/28 00:58:20;;;;;;;18.63;3.60;;;4.00;99.90;;;;;;5026438;28;20106;-89
2022/01/28 01:00:46;;;;;;;14.70;2.90;;;4.00;99.90;;;;;;5023070;28;20048;-89
2022/01/28 01:03:11;;;;;;;18.08;2.90;;;3.90;99.90;;;;;;5030854;28;20053;-89
2022/01/28 01:05:37;;;;;;;17.00;3.17;;;3.90;99.90;;;;;;5021644;28;20083;-89
2022/01/28 01:08:05;;;;;;;20.40;2.92;;;3.90;99.90;;;;;;5012341;28;20069;-90
2022/01/28 01:10:31;;;;;;;18.52;2.70;;;3.90;99.90;;;;;;5031265;28;20466;-89
2022/01/28 01:12:57;;;;;;;16.00;2.97;;;4.00;99.90;;;;;;5027507;28;20295;-89
2022/01/28 01:15:26;;;;;;;17.30;2.90;;;4.10;99.90;;;;;;5029757;28;20049;-88
2022/01/28 01:20:38;;;;;;;17.58;3.15;;;3.90;99.90;;;;;;5026207;28;20377;-88
2022/01/28 01:23:14;;;;;;;19.45;3.45;;;3.90;99.90;;;;;;5007488;28;20150;-88
2022/01/28 01:25:56;;;;;;;18.98;3.13;;;3.80;99.90;;;;;;5015177;28;20044;-88
2022/01/28 01:28:28;;;;;;;20.95;4.20;;;3.80;99.90;;;;;;5024675;28;20084;-88
2022/01/28 01:30:53;;;;;;;18.15;3.20;;;3.70;99.90;;;;;;5028175;28;20041;-88
2022/01/28 01:33:20;;;;;;;23.60;3.85;;;3.80;99.90;;;;;;5004322;28;20438;-88
2022/01/28 01:35:46;;;;;;;22.30;2.92;;;3.70;99.90;;;;;;5019584;28;20069;-88
2022/01/28 01:38:12;;;;;;;18.58;3.35;;;3.60;99.90;;;;;;5017724;28;20045;-88
2022/01/28 01:40:47;;;;;;;22.17;3.42;;;3.50;99.90;;;;;;5017629;28;20037;-88
2022/01/28 01:43:27;;;;;;;22.88;3.40;;;3.50;99.90;;;;;;5018994;28;20274;-88
2022/01/28 01:53:50;;;;;;;21.85;3.88;;;3.30;99.90;;;;;;5015288;28;20049;-88
2022/01/28 01:56:17;;;;;;;14.38;2.80;;;3.30;99.90;;;;;;5006020;28;21322;-89
2022/01/28 01:58:43;;;;;;;17.55;2.65;;;3.40;99.90;;;;;;5018570;28;20128;-88
2022/01/28 02:01:11;;;;;;;16.33;3.22;;;3.50;99.90;;;;;;5025322;28;20442;-88
2022/01/28 02:03:37;;;;;;;21.40;3.70;;;3.60;99.90;;;;;;5018721;28;20055;-88
2022/01/28 02:06:03;;;;;;;18.63;3.35;;;3.70;99.90;;;;;;5003081;28;20423;-89
2022/01/28 02:08:32;;;;;;;24.00;3.65;;;3.80;99.90;;;;;;5016621;28;20084;-88
2022/01/28 02:10:59;;;;;;;13.68;2.42;;;3.90;99.90;;;;;;5018732;28;20100;-88
2022/01/28 02:13:26;;;;;;;20.70;3.23;;;3.90;99.90;;;;;;5001423;28;20922;-88
2022/01/28 02:15:53;;;;;;;20.38;3.45;;;4.00;99.90;;;;;;5040101;28;20494;-89
2022/01/28 02:18:19;;;;;;;25.05;3.42;;;4.00;99.90;;;;;;5002618;28;20045;-88
2022/01/28 02:20:50;;;;;;;20.60;3.30;;;4.00;99.90;;;;;;5001372;28;20073;-89
2022/01/28 02:23:17;;;;;;;22.60;3.53;;;4.00;99.90;;;;;;5014391;28;20128;-87
2022/01/28 02:25:43;;;;;;;18.90;3.35;;;4.00;99.90;;;;;;5016395;28;20045;-87
2022/01/28 02:28:12;;;;;;;14.65;2.63;;;4.00;99.90;;;;;;5017905;28;20083;-88
2022/01/28 02:30:37;;;;;;;29.02;4.45;;;3.90;99.90;;;;;;5025665;28;20102;-89
2022/01/28 02:33:19;;;;;;;18.88;4.10;;;3.90;99.90;;;;;;5028773;28;20037;-88
2022/01/28 02:35:47;;;;;;;18.90;3.60;;;3.90;99.90;;;;;;5018178;28;20424;-88
2022/01/28 02:38:14;;;;;;;17.83;3.20;;;3.90;99.90;;;;;;5024753;28;20042;-87
2022/01/28 02:40:45;;;;;;;21.42;3.55;;;3.90;99.90;;;;;;5017621;28;20084;-88
2022/01/28 02:45:51;;;;;;;24.73;3.80;;;3.80;99.90;;;;;;5018166;28;21276;-90
2022/01/28 02:48:24;;;;;;;17.80;3.08;;;4.00;99.90;;;;;;5010209;28;20045;-89
2022/01/28 02:51:03;;;;;;;26.90;3.90;;;4.10;99.90;;;;;;5023996;28;20822;-90
2022/01/28 02:53:39;;;;;;;22.02;3.25;;;4.10;99.90;;;;;;5017994;28;21451;-90
2022/01/28 02:56:14;;;;;;;23.40;3.13;;;4.20;99.90;;;;;;5018686;28;20037;-90
2022/01/28 02:58:40;;;;;;;19.77;3.00;;;4.20;99.90;;;;;;5003028;28;20042;-90
2022/01/28 03:01:06;;;;;;;21.52;3.38;;;4.20;99.90;;;;;;5020760;28;20341;-89
2022/01/28 03:03:32;;;;;;;19.95;3.47;;;4.20;99.90;;;;;;5005138;28;20152;-88
2022/01/28 03:05:57;;;;;;;21.95;3.50;;;4.20;99.90;;;;;;5031356;28;20045;-87
2022/01/28 03:08:27;;;;;;;24.17;3.50;;;4.20;99.90;;;;;;5019513;28;20113;-87
2022/01/28 03:14:01;;;;;;;19.25;3.13;;;4.00;99.90;;;;;;5012444;28;20057;-87
2022/01/28 03:16:31;;;;;;;21.20;3.55;;;4.00;99.90;;;;;;5019332;28;20073;-87
2022/01/28 03:19:16;;;;;;;22.35;3.58;;;3.80;99.90;;;;;;5010654;28;20091;-87
2022/01/28 03:21:44;;;;;;;21.02;3.05;;;3.80;99.90;;;;;;5026183;28;20052;-87
2022/01/28 03:24:12;;;;;;;20.50;3.35;;;3.70;99.90;;;;;;5023463;28;20508;-87
2022/01/28 03:26:38;;;;;;;21.70;3.25;;;3.60;99.90;;;;;;5011408;28;20080;-87
2022/01/28 03:29:04;;;;;;;23.20;4.10;;;3.60;99.90;;;;;;5018245;28;20117;-88
2022/01/28 03:31:30;;;;;;;18.70;3.78;;;3.60;99.90;;;;;;5019679;28;20156;-87
2022/01/28 03:33:56;;;;;;;23.00;3.58;;;3.50;99.90;;;;;;5016371;28;20121;-87
2022/01/28 03:36:22;;;;;;;20.75;3.58;;;3.50;99.90;;;;;;5027418;28;20413;-87
2022/01/28 03:38:48;;;;;;;20.65;3.50;;;3.50;99.90;;;;;;5026278;28;20053;-87
2022/01/28 03:41:17;;;;;;;22.33;3.58;;;3.60;99.90;;;;;;5020409;28;20368;-87
2022/01/28 03:43:47;;;;;;;23.05;4.05;;;3.60;99.90;;;;;;5007354;28;20037;-87
2022/01/28 03:46:14;;;;;;;24.83;3.97;;;3.70;99.90;;;;;;5018403;28;20053;-87
2022/01/28 03:48:40;;;;;;;18.67;3.55;;;3.70;99.90;;;;;;5018967;28;20545;-87
2022/01/28 03:51:06;;;;;;;22.38;3.95;;;3.80;99.90;;;;;;5023994;28;20037;-87
2022/01/28 03:53:31;;;;;;;22.58;3.72;;;3.80;99.90;;;;;;5027925;28;20069;-87
2022/01/28 03:55:58;;;;;;;28.13;5.15;;;3.90;99.90;;;;;;5002060;28;20457;-87
2022/01/28 03:58:24;;;;;;;30.45;3.72;;;4.00;99.90;;;;;;4997013;28;20409;-87
2022/01/28 04:00:51;;;;;;;24.23;3.80;;;4.00;99.90;;;;;;5011394;28;20382;-87
2022/01/28 04:11:26;;;;;;;28.80;3.80;;;4.00;99.90;;;;;;5014002;28;20095;-87
2022/01/28 04:13:54;;;;;;;25.15;3.70;;;4.10;99.90;;;;;;4995563;28;20125;-87
2022/01/28 04:18:45;;;;;;;29.27;3.88;;;4.00;99.90;;;;;;5016008;28;20088;-87
2022/01/28 04:21:11;;;;;;;28.33;4.45;;;4.10;99.90;;;;;;5017414;28;20158;-86
2022/01/28 04:23:37;;;;;;;22.15;4.05;;;4.00;99.90;;;;;;5015033;28;20383;-87
2022/01/28 04:26:02;;;;;;;31.38;4.38;;;4.00;99.90;;;;;;5014350;28;20034;-86
2022/01/28 04:28:28;;;;;;;22.15;3.92;;;4.10;99.90;;;;;;5013522;28;20041;-87
2022/01/28 04:30:53;;;;;;;24.88;4.78;;;4.10;99.90;;;;;;5013566;28;20087;-87
2022/01/28 04:33:19;;;;;;;27.75;4.50;;;4.10;99.90;;;;;;5018527;28;20049;-89
2022/01/28 04:35:48;;;;;;;25.30;3.75;;;4.10;99.90;;;;;;5016891;28;20041;-88
2022/01/28 04:38:28;;;;;;;29.05;4.45;;;4.10;99.90;;;;;;5027066;28;20048;-87
2022/01/28 04:41:08;;;;;;;22.85;4.28;;;4.20;99.90;;;;;;5027960;28;20059;-90
2022/01/28 04:43:41;;;;;;;22.45;4.18;;;4.20;99.90;;;;;;5029038;28;20372;-88
2022/01/28 04:46:14;;;;;;;26.20;4.93;;;4.20;99.90;;;;;;5013181;28;20052;-88
2022/01/28 04:48:49;;;;;;;27.60;4.68;;;4.20;99.90;;;;;;5002317;28;20153;-88
2022/01/28 04:51:53;;;;;;;25.30;3.78;;;4.20;99.90;;;;;;5024999;28;20087;-88
2022/01/28 04:57:04;;;;;;;25.88;3.90;;;4.30;99.90;;;;;;5018527;28;20446;-88
2022/01/28 05:07:32;;;;;;;26.40;3.45;;;4.40;99.90;;;;;;5018213;28;20053;-88
2022/01/28 05:10:34;;;;;;;24.30;3.92;;;4.40;99.90;;;;;;5028128;28;20045;-89
2022/01/28 05:13:23;;;;;;;25.65;4.10;;;4.50;99.90;;;;;;5021370;28;20112;-89
2022/01/28 05:29:05;;;;;;;24.60;3.78;;;4.50;99.90;;;;;;5030602;28;20041;-88
2022/01/28 05:31:31;;;;;;;22.35;4.18;;;4.40;99.90;;;;;;5013398;28;20099;-88
2022/01/28 05:33:57;;;;;;;24.35;4.30;;;4.40;99.90;;;;;;5022475;28;20037;-88
2022/01/28 05:36:22;;;;;;;20.85;3.75;;;4.40;99.90;;;;;;5019111;28;20044;-89
2022/01/28 05:38:49;;;;;;;25.13;4.10;;;4.40;99.90;;;;;;5002461;28;20116;-88
2022/01/28 05:41:14;;;;;;;27.42;4.88;;;4.30;99.90;;;;;;5009287;28;20042;-88
2022/01/28 05:43:40;;;;;;;21.90;4.32;;;4.30;99.90;;;;;;5019288;28;20059;-89
2022/01/28 05:46:08;;;;;;;28.52;4.03;;;4.30;99.90;;;;;;5040958;28;20226;-89
2022/01/28 05:48:33;;;;;;;21.40;3.77;;;4.20;99.90;;;;;;5011510;28;20662;-88
2022/01/28 05:50:59;;;;;;;20.02;3.78;;;4.20;99.90;;;;;;5027646;28;20045;-89
2022/01/28 05:53:25;;;;;;;24.90;4.25;;;4.20;99.90;;;;;;5048349;22;20076;-51
2022/01/28 05:55:51;;;;;;;24.45;4.50;;;4.20;99.90;;;;;;5076008;28;20066;-53
2022/01/28 05:58:16;;;;;;;30.67;4.35;;;4.20;99.90;;;;;;5072122;28;20045;-53
2022/01/28 06:00:42;;;;;;;20.88;4.13;;;4.30;99.90;;;;;;5067205;28;20128;-50
2022/01/28 06:03:07;;;;;;;24.90;4.57;;;4.30;99.90;;;;;;5072627;28;20131;-49
2022/01/28 06:05:33;;;;;;;23.52;4.53;;;4.30;99.90;;;;;;5071514;28;20029;-52
2022/01/28 06:07:59;;;;;;;32.88;5.40;;;4.30;99.90;;;;;;5071494;28;20208;-52
2022/01/28 06:10:25;;;;;;;25.95;4.82;;;4.30;99.90;;;;;;5072884;28;20044;-53
2022/01/28 06:12:51;;;;;;;30.17;4.65;;;4.20;99.90;;;;;;5071431;28;20045;-54
2022/01/28 06:15:17;;;;;;;24.88;4.38;;;4.20;99.90;;;;;;5072373;28;20040;-55
2022/01/28 06:17:42;;;;;;;25.85;4.50;;;4.10;99.90;;;;;;5069141;28;20175;-48
2022/01/28 06:20:10;;;;;;;20.60;4.22;;;4.00;99.90;;;;;;5070765;28;20037;-50
2022/01/28 06:22:43;;;;;;;26.45;4.75;;;4.00;99.90;;;;;;5069776;28;20036;-52
2022/01/28 06:25:11;;;;;;;23.85;5.13;;;3.90;99.90;;;;;;5072494;28;20140;-53
2022/01/28 06:27:37;;;;;;;25.90;4.30;;;3.90;99.90;;;;;;5076860;28;20040;-51
2022/01/28 06:30:04;;;;;;;25.52;4.50;;;3.80;99.90;;;;;;5075018;28;20049;-52
2022/01/28 06:32:31;;;;;;;25.60;4.27;;;3.80;99.90;;;;;;5074980;28;21281;-53
2022/01/28 06:34:56;;;;;;;28.60;4.07;;;3.80;99.90;;;;;;5072867;28;20311;-53
2022/01/28 06:37:22;;;;;;;23.95;4.07;;;3.90;99.90;;;;;;5069683;28;20681;-51
2022/01/28 06:39:48;;;;;;;22.35;4.72;;;3.90;99.90;;;;;;5073211;28;20036;-54
2022/01/28 06:42:13;;;;;;;29.38;4.90;;;3.90;99.90;;;;;;5073374;28;20573;-50
2022/01/28 06:44:39;;;;;;;24.85;4.47;;;3.90;99.90;;;;;;5073305;28;20614;-54
2022/01/28 06:47:05;;;;;;;26.05;4.05;;;4.00;99.90;;;;;;5080241;28;20074;-52
2022/01/28 06:49:31;;;;;;;20.30;3.70;;;4.00;99.90;;;;;;5082575;28;20075;-54
2022/01/28 06:51:57;;;;;;;25.90;4.22;;;4.00;99.90;;;;;;5084047;28;20048;-55
2022/01/28 06:54:23;;;;;;;19.48;4.00;;;4.10;99.90;;;;;;5085853;28;20070;-53
2022/01/28 06:56:48;;;;;;;25.10;4.20;;;4.10;99.90;;;;;;5086840;28;20084;-50
2022/01/28 06:59:15;;;;;;;27.55;4.90;;;4.00;99.90;;;;;;5089226;28;20486;-52
2022/01/28 07:01:40;;;;;;;28.25;4.55;;;4.00;99.90;;;;;;5086726;28;20112;-53
2022/01/28 07:04:06;;;;;;;26.40;4.43;;;4.00;99.90;;;;;;5086060;28;20055;-51
2022/01/28 07:06:31;;;;;;;25.88;4.18;;;4.00;99.90;;;;;;5089769;28;20110;-53
2022/01/28 07:08:57;;;;;;;28.27;4.35;;;4.00;99.90;;;;;;5089799;28;20067;-51
2022/01/28 07:11:23;;;;;;;29.38;4.53;;;4.00;99.90;;;;;;5092471;28;20085;-52
2022/01/28 07:13:48;;;;;;;24.40;3.55;;;4.00;99.90;;;;;;5092836;28;20080;-51
2022/01/28 07:16:14;;;;;;;25.35;4.85;;;3.90;99.90;;;;;;5087917;28;20053;-55
2022/01/28 07:18:39;;;;;;;24.00;4.70;;;3.90;99.90;;;;;;5090503;28;20048;-51
2022/01/28 07:21:05;;;;;;;22.77;4.10;;;3.90;99.90;;;;;;5106195;28;20079;-50
2022/01/28 07:23:30;;;;;;;28.13;4.80;;;3.90;99.90;;;;;;5089503;28;20055;-52
2022/01/28 07:25:56;;;;;;;30.40;4.90;;;3.80;99.90;;;;;;5089831;28;20047;-50
2022/01/28 07:28:23;;;;;;;24.15;4.60;;;3.80;99.90;;;;;;5087967;28;20056;-50
2022/01/28 07:30:49;;;;;;;28.95;4.60;;;3.70;99.90;;;;;;5092002;28;20047;-50
2022/01/28 07:33:14;;;;;;;29.90;4.85;;;3.80;99.90;;;;;;5090022;28;20040;-53
2022/01/28 07:35:40;;;;;;;25.73;5.25;;;3.80;99.90;;;;;;5091488;28;20067;-51
2022/01/28 07:38:06;;;;;;;19.75;4.20;;;3.70;99.90;;;;;;5089892;28;20068;-51
2022/01/28 07:40:31;;;;;;;29.33;4.32;;;3.70;99.90;;;;;;5090899;28;20047;-52
2022/01/28 07:42:57;;;;;;;21.83;4.97;;;3.70;99.90;;;;;;5084317;28;20017;-49
2022/01/28 07:45:23;;;;;;;26.42;5.80;;;3.70;99.90;;;;;;5086533;28;20041;-54
2022/01/28 07:47:49;;;;;;;20.75;4.32;;;3.70;99.90;;;;;;5086396;28;20052;-49
2022/01/28 07:50:15;;;;;;;20.67;4.32;;;3.70;99.90;;;;;;5084965;28;20048;-53
2022/01/28 07:52:41;;;;;;;30.13;4.50;;;3.60;99.90;;;;;;5084475;28;20070;-55
2022/01/28 07:55:10;;;;;;;25.45;5.05;;;3.60;99.90;;;;;;5083110;28;20120;-48
2022/01/28 07:57:36;;;;;;;24.95;4.68;;;3.70;99.90;;;;;;5085269;28;20088;-54
2022/01/28 08:00:04;;;;;;;25.38;4.20;;;3.60;99.90;;;;;;5088456;28;20043;-53
2022/01/28 08:02:29;;;;;;;26.10;4.20;;;3.60;99.90;;;;;;5085229;28;20056;-53
2022/01/28 08:04:55;;;;;;;23.38;3.88;;;3.70;99.90;;;;;;5098760;28;20052;-54
2022/01/28 08:07:22;;;;;;;27.95;4.88;;;3.70;99.90;;;;;;5090307;28;20060;-52
2022/01/28 08:09:47;;;;;;;19.67;4.30;;;3.70;99.90;;;;;;5091506;28;20085;-52
2022/01/28 08:12:13;;;;;;;22.80;3.97;;;3.80;99.90;;;;;;5091404;28;20122;-50
2022/01/28 08:14:39;;;;;;;27.13;5.25;;;3.80;99.90;;;;;;5091862;28;20040;-50
2022/01/28 08:17:04;;;;;;;24.58;4.60;;;3.90;99.90;;;;;;5089407;28;20037;-51
2022/01/28 08:19:30;;;;;;;25.48;4.53;;;3.80;99.90;;;;;;5089583;28;20055;-52
2022/01/28 08:21:56;;;;;;;27.77;4.93;;;3.80;99.90;;;;;;5090101;28;20040;-51
2022/01/28 08:24:21;;;;;;;23.25;3.97;;;3.90;99.90;;;;;;5088475;28;20040;-51
2022/01/28 08:26:47;;;;;;;21.67;3.67;;;3.90;99.90;;;;;;5088720;28;20130;-52
2022/01/28 08:29:12;;;;;;;22.20;4.18;;;4.00;99.90;;;;;;5090766;28;20048;-53
2022/01/28 08:31:38;;;;;;;32.53;4.32;;;4.00;99.90;;;;;;5089500;28;20041;-55
2022/01/28 08:34:04;;;;;;;21.25;4.57;;;4.10;99.90;;;;;;5084658;28;20052;-55
2022/01/28 08:36:30;;;;;;;24.52;4.55;;;4.10;99.90;;;;;;5082299;28;20048;-55
2022/01/28 08:38:56;;;;;;;23.50;4.38;;;4.20;99.90;;;;;;5088585;28;20045;-53
2022/01/28 08:41:23;;;;;;;27.27;4.80;;;4.30;99.90;;;;;;5085386;28;20036;-50
2022/01/28 08:43:49;;;;;;;32.67;5.43;;;4.30;99.90;;;;;;5086887;28;20037;-52
2022/01/28 08:46:15;;;;;;;27.95;4.72;;;4.40;99.90;;;;;;5088583;28;20034;-50
2022/01/28 08:48:41;;;;;;;27.23;4.78;;;4.50;99.90;;;;;;5092905;28;20105;-54
2022/01/28 08:51:07;;;;;;;21.98;4.60;;;4.50;99.90;;;;;;5085864;28;20090;-50
2022/01/28 08:53:33;;;;;;;29.30;5.05;;;4.50;99.90;;;;;;5091621;28;20048;-51
2022/01/28 08:55:59;;;;;;;19.15;4.20;;;4.50;99.90;;;;;;5089374;28;20101;-54
2022/01/28 08:58:25;;;;;;;24.70;4.53;;;4.40;99.90;;;;;;5087692;28;20040;-55
2022/01/28 09:00:53;;;;;;;28.92;4.55;;;4.40;99.90;;;;;;5085762;28;20111;-54
2022/01/28 09:03:21;;;;;;;29.23;4.85;;;4.30;99.90;;;;;;5090931;28;20055;-51
2022/01/28 09:05:46;;;;;;;20.77;4.13;;;4.30;99.90;;;;;;5091218;28;20059;-53
2022/01/28 09:08:12;;;;;;;23.23;4.45;;;4.40;99.90;;;;;;5091579;28;20025;-51
2022/01/28 09:10:43;;;;;;;30.75;4.18;;;4.40;99.90;;;;;;5089924;28;20104;-53
2022/01/28 09:13:21;;;;;;;28.90;4.65;;;4.40;99.90;;;;;;5088361;28;20123;-52
2022/01/28 09:15:46;;;;;;;24.45;4.60;;;4.40;99.90;;;;;;5090329;28;20028;-53
2022/01/28 09:18:12;;;;;;;25.33;4.82;;;4.40;99.90;;;;;;5090288;28;20112;-53
2022/01/28 09:20:39;;;;;;;26.15;4.53;;;4.40;99.90;;;;;;5089980;28;20043;-52
2022/01/28 09:23:05;;;;;;;27.85;4.60;;;4.50;99.90;;;;;;5091307;28;20032;-53
2022/01/28 09:25:31;;;;;;;23.88;4.60;;;4.50;99.90;;;;;;5090568;28;20060;-52
2022/01/28 09:27:57;;;;;;;20.80;4.57;;;4.60;99.90;;;;;;5093400;28;20037;-53
2022/01/28 09:30:23;;;;;;;22.35;4.22;;;4.70;99.90;;;;;;5106721;28;20075;-49
2022/01/28 09:32:49;;;;;;;25.92;4.32;;;4.80;99.90;;;;;;5096005;28;20041;-53
2022/01/28 09:35:15;;;;;;;26.23;5.00;;;4.90;99.90;;;;;;5093286;28;20041;-56
2022/01/28 09:37:42;;;;;;;29.15;4.90;;;5.00;99.90;;;;;;5094585;28;20033;-51
2022/01/28 09:40:08;;;;;;;21.25;4.28;;;5.20;99.90;;;;;;5107713;28;20040;-52
2022/01/28 09:42:37;;;;;;;24.80;5.07;;;5.30;99.90;;;;;;5094502;28;20075;-51
2022/01/28 09:45:04;;;;;;;20.70;4.68;;;5.40;99.90;;;;;;5095931;28;20063;-53
2022/01/28 09:47:31;;;;;;;23.88;5.18;;;5.50;99.90;;;;;;5094140;28;20190;-50
2022/01/28 09:49:57;;;;;;;22.38;4.70;;;5.60;99.90;;;;;;5094055;28;20056;-53
2022/01/28 09:52:22;;;;;;;20.95;4.55;;;5.80;99.90;;;;;;5094559;28;20048;-53
2022/01/28 09:54:48;;;;;;;21.92;4.00;;;6.00;99.90;;;;;;5087036;28;20044;-51
2022/01/28 09:57:19;;;;;;;22.98;4.15;;;6.00;99.90;;;;;;5093352;28;20043;-52
2022/01/28 09:59:45;;;;;;;23.85;4.25;;;;;;;;;;5095212;28;20032;-52
2022/01/28 10:02:11;;;;;;;20.98;4.03;;;;;;;;;;5094283;28;20040;-54
2022/01/28 10:04:37;;;;;;;24.58;4.55;;;;;;;;;;5091555;28;20067;-54
2022/01/28 10:07:10;;;;;;;23.55;4.82;;;;;;;;;;5092724;28;20036;-52
2022/01/28 10:09:37;;;;;;;25.23;4.72;;;;;;;;;;5095285;28;20071;-51
2022/01/28 10:12:15;;;;;;;30.10;5.28;;;;;;;;;;5093689;28;20066;-52
2022/01/28 10:15:01;;;;;;;23.63;4.47;;;;;;;;;;5093849;28;20036;-53
2022/01/28 10:17:47;;;;;;;26.15;4.80;;;;;;;;;;5087787;28;20044;-54
2022/01/28 10:20:13;;;;;;;25.63;4.25;;;;;;;;;;5091419;28;20052;-52
2022/01/28 10:22:49;;;;;;;21.83;4.00;;;;;;;;;;5089362;28;20100;-53
2022/01/28 10:25:31;;;;;;;21.08;4.80;;;;;;;;;;5091690;28;20139;-52
2022/01/28 10:27:59;;;;;;;32.75;4.68;;;;;;;;;;5092790;28;20066;-53
2022/01/28 10:30:25;;;;;;;30.08;4.88;;;;;;;;;;5092341;28;20040;-53
2022/01/28 10:33:10;;;;;;;27.48;5.05;;;;;;;;;;5094352;28;20047;-53
2022/01/28 10:35:36;;;;;;;24.38;4.18;;;;;;;;;;5088411;28;20041;-55
2022/01/28 10:38:03;;;;;;;27.02;5.03;;;;;;;;;;5093827;28;20075;-54
2022/01/28 10:40:30;;;;;;;27.33;4.27;;;;;;;;;;5094140;28;20053;-53
2022/01/28 10:42:56;;;;;;;23.42;4.88;;;;;;;;;;5094442;28;20101;-54
2022/01/28 10:45:25;;;;;;;20.30;4.57;;;;;;;;;;5093143;28;20036;-54
2022/01/28 10:47:51;;;;;;;24.15;4.75;;;;;;;;;;5093137;28;20052;-53
2022/01/28 10:50:32;;;;;;;20.63;4.30;;;;;;;;;;5092040;28;20041;-53
2022/01/28 10:53:12;;;;;;;29.40;4.10;;;;;;;;;;5090373;28;20051;-53
2022/01/28 10:55:41;;;;;;;24.33;4.40;;;;;;;;;;5091367;28;20052;-54
2022/01/28 10:58:10;;;;;;;23.08;4.40;;;;;;;;;;5091494;28;20035;-54
2022/01/28 11:00:38;;;;;;;22.08;4.10;;;;;;;;;;5091578;28;20048;-53
2022/01/28 11:03:06;;;;;;;24.05;4.07;;;;;;;;;;5086644;28;20056;-55
2022/01/28 11:05:33;;;;;;;24.73;4.72;;;;;;;;;;5089844;28;20059;-54
2022/01/28 11:08:00;;;;;;;22.27;4.07;;;;;;;;;;5089014;28;20100;-56
2022/01/28 11:10:26;;;;;;;27.48;4.47;;;;;;;;;;5088669;28;20332;-54
2022/01/28 11:12:53;;;;;;;28.23;5.18;;;;;;;;;;5094365;28;20059;-54
2022/01/28 11:15:20;;;;;;;25.35;4.38;;;;;;;;;;5092282;28;20051;-55
2022/01/28 11:17:46;;;;;;;29.55;5.53;;;;;;;;;;5087975;28;20040;-56
2022/01/28 11:20:13;;;;;;;23.92;4.45;;;;;;;;;;5092057;28;20036;-54
2022/01/28 11:22:47;;;;;;;27.10;4.80;;;;;;;;;;5092152;28;20074;-54
2022/01/28 11:25:35;;;;;;;25.48;4.63;;;;;;;;;;5091665;28;20053;-52
2022/01/28 11:28:06;;;;;;;27.98;4.50;;;;;;;;;;5094435;28;20043;-54
2022/01/28 11:30:33;;;;;;;24.70;4.65;;;;;;;;;;5093293;28;20123;-53
2022/01/28 11:33:01;;;;;;;24.65;4.15;;;;;;;;;;5091325;28;20033;-53
2022/01/28 11:35:32;;;;;;;23.08;4.38;;;;;;;;;;5092374;28;20021;-54
2022/01/28 11:38:04;;;;;;;26.85;4.03;;;;;;;;;;5091913;28;20036;-53
2022/01/28 11:40:45;;;;;;;22.73;4.57;;;;;;;;;;5093207;28;20040;-54
2022/01/28 11:43:18;;;;;;;27.50;4.30;;;7.30;99.90;;;;;;5093995;28;20074;-53
2022/01/28 11:45:44;;;;;;;25.33;4.68;;;7.30;99.90;;;;;;5093778;28;20044;-53
2022/01/28 11:48:09;;;;;;;26.52;4.05;;;7.30;99.90;;;;;;5093583;28;20083;-55
2022/01/28 11:50:35;;;;;;;19.52;3.72;;;7.30;99.90;;;;;;5092042;28;20029;-53
2022/01/28 11:53:01;;;;;;;27.10;5.00;;;7.50;99.90;;;;;;5090610;28;20041;-53
2022/01/28 11:55:26;;;;;;;24.58;4.55;;;;;;;;;;5079106;28;20049;-54
2022/01/28 11:57:53;;;;;;;22.55;5.07;;;;;;;;;;5093983;28;20041;-53
2022/01/28 12:00:21;;;;;;;26.65;4.57;;;;;;;;;;5093729;28;20040;-53
2022/01/28 12:02:49;;;;;;;19.10;3.67;;;;;;;;;;5091870;28;20079;-55
2022/01/28 12:05:29;;;;;;;21.63;3.97;;;7.70;99.90;;;;;;5092575;28;20408;-55
2022/01/28 12:07:56;;;;;;;26.88;4.80;;;7.60;99.90;;;;;;5091556;28;20302;-54
2022/01/28 12:10:23;;;;;;;26.55;4.93;;;;;;;;;;5090791;28;20570;-54
2022/01/28 12:13:05;;;;;;;21.27;3.70;;;7.40;99.90;;;;;;5092199;28;20044;-54
2022/01/28 12:16:01;;;;;;;34.42;4.78;;;7.30;99.90;;;;;;5089864;28;20048;-53
2022/01/28 12:18:54;;;;;;;20.42;3.60;;;7.40;99.90;;;;;;5086962;28;20075;-54
2022/01/28 12:21:29;;;;;;;24.90;3.95;;;7.50;99.90;;;;;;5086285;28;20094;-54
2022/01/28 12:24:20;;;;;;;26.85;4.35;;;7.60;99.90;;;;;;5089494;28;20036;-55
2022/01/28 12:27:03;;;;;;;23.50;3.92;;;7.60;99.90;;;;;;5089230;28;20094;-53
2022/01/28 12:29:47;;;;;;;19.02;3.22;;;7.70;99.90;;;;;;5085186;28;20048;-56
2022/01/28 12:32:13;;;;;;;23.67;4.07;;;7.80;99.90;;;;;;5080508;28;20397;-54
2022/01/28 12:34:47;;;;;;;25.55;4.50;;;7.70;99.90;;;;;;5090260;28;20048;-54
2022/01/28 12:37:13;;;;;;;18.83;3.28;;;7.70;99.90;;;;;;5083235;28;20083;-54
2022/01/28 12:39:49;;;;;;;15.95;4.03;;;7.80;99.90;;;;;;5086141;28;20055;-54
2022/01/28 12:44:57;;;;;;;19.17;4.07;;;8.00;99.90;;;;;;5080720;28;20028;-54
2022/01/28 12:47:24;;;;;;;20.45;3.88;;;;;;;;;;5079430;28;20086;-54
2022/01/28 12:50:03;;;;;;;18.88;3.70;;;8.10;99.90;;;;;;5078783;28;20045;-54
2022/01/28 12:52:31;;;;;;;20.60;4.30;;;8.10;99.90;;;;;;5080788;28;20746;-56
2022/01/28 12:54:56;;;;;;;;;;;8.10;99.90;;;;;;5074832;28;20041;-54
2022/01/28 12:57:22;;;;;;;20.95;3.85;;;8.10;99.90;;;;;;5081625;28;19935;-55
2022/01/28 12:59:49;;;;;;;18.52;3.75;;;8.20;99.90;;;;;;5087117;28;20140;-55
2022/01/28 13:02:17;;;;;;;26.42;3.90;;;8.20;99.90;;;;;;5087092;28;20040;-54
2022/01/28 13:04:52;;;;;;;22.10;3.65;;;8.10;99.90;;;;;;5092092;28;20032;-55
2022/01/28 13:09:57;;;;;;;19.98;3.58;;;8.10;99.90;;;;;;5107476;28;20056;-54
2022/01/28 13:12:31;;;;;;;18.58;3.92;;;8.00;99.90;;;;;;5091151;28;20087;-52
2022/01/28 13:15:08;;;;;;;15.70;3.53;;;7.90;99.90;;;;;;5093371;28;20127;-52
2022/01/28 13:17:34;;;;;;;24.70;4.43;;;7.70;99.90;;;;;;5085651;28;20040;-52
2022/01/28 13:20:03;;;;;;;23.67;4.25;;;7.70;99.90;;;;;;5086071;28;20056;-54
2022/01/28 13:22:31;;;;;;;20.05;3.78;;;7.60;99.90;;;;;;5085797;28;20036;-52
2022/01/28 13:24:58;;;;;;;22.05;4.55;;;7.50;99.90;;;;;;5086027;28;20045;-53
2022/01/28 13:27:46;;;;;;;20.90;4.90;;;7.50;99.90;;;;;;5084068;28;20048;-54
2022/01/28 13:30:16;;;;;;;25.55;4.53;;;7.50;99.90;;;;;;5086265;28;20193;-55
2022/01/28 13:32:45;;;;;;;21.75;5.07;;;7.50;99.90;;;;;;5089252;28;20049;-53
2022/01/28 13:35:33;;;;;;;27.20;4.78;;;7.60;99.90;;;;;;5090647;28;20048;-53
2022/01/28 13:38:03;;;;;;;24.50;4.40;;;7.60;99.90;;;;;;5093378;28;20020;-53
2022/01/28 13:40:30;;;;;;;29.90;4.30;;;7.50;99.90;;;;;;5096153;28;20046;-54
2022/01/28 13:43:02;;;;;;;26.35;4.72;;;7.50;99.90;;;;;;5095985;28;20021;-51
2022/01/28 13:45:28;;;;;;;21.20;4.95;;;7.50;99.90;;;;;;5095787;28;20040;-52
2022/01/28 13:47:54;;;;;;;20.85;4.43;;;7.50;99.90;;;;;;5096827;28;20040;-50
2022/01/28 13:50:41;;;;;;;23.27;4.72;;;7.40;99.90;;;;;;5095817;28;20020;-52
2022/01/28 13:53:22;;;;;;;23.13;3.97;;;7.40;99.90;;;;;;5091089;28;20049;-52
2022/01/28 13:55:51;;;;;;;18.35;4.18;;;7.40;99.90;;;;;;5093433;28;20064;-50
2022/01/28 13:58:17;;;;;;;20.55;3.65;;;7.50;99.90;;;;;;5095887;28;20036;-50
2022/01/28 14:00:50;;;;;;;68.95;6.03;;;7.50;99.90;;;;;;5080364;28;20039;-49
2022/01/28 14:03:20;;;;;;;24.38;3.75;;;7.60;99.90;;;;;;5096547;28;20044;-53
2022/01/28 14:05:49;;;;;;;21.25;4.20;;;7.70;99.90;;;;;;5094497;28;20063;-52
2022/01/28 14:08:15;;;;;;;19.08;3.30;;;7.70;99.90;;;;;;5096564;28;20055;-52
2022/01/28 14:10:41;;;;;;;21.90;3.47;;;7.70;99.90;;;;;;5094287;28;20052;-50
2022/01/28 14:13:20;;;;;;;16.98;3.50;;;7.80;99.90;;;;;;5093884;28;20045;-50
2022/01/28 14:16:03;;;;;;;18.08;3.20;;;7.80;99.90;;;;;;5092300;28;20070;-53
2022/01/28 14:18:28;;;;;;;17.00;3.58;;;7.70;99.90;;;;;;5086284;28;20045;-52
2022/01/28 14:20:54;;;;;;;13.70;2.67;;;7.60;99.90;;;;;;5087448;28;20058;-51
2022/01/28 14:23:19;;;;;;;20.20;3.70;;;7.50;99.90;;;;;;5085653;28;20072;-51
2022/01/28 14:25:45;;;;;;;20.27;2.97;;;7.40;99.90;;;;;;5090261;28;20064;-53
2022/01/28 14:30:54;;;;;;;16.92;2.70;;;7.20;99.90;;;;;;5087391;28;20044;-51